createdAt,value
2023-05-15T00:00:19.510Z,13.64
2023-05-15T00:02:47.330Z,13.63
2023-05-15T00:05:14.494Z,13.74
2023-05-15T00:07:43.595Z,13.82
2023-05-15T00:10:11.363Z,13.82
2023-05-15T00:12:39.838Z,13.79
2023-05-15T00:15:08.481Z,13.54
2023-05-15T00:17:36.522Z,13.59
2023-05-15T00:20:06.912Z,13.56
2023-05-15T00:22:35.499Z,13.54
2023-05-15T00:25:03.434Z,13.47
2023-05-15T00:27:31.119Z,13.55
2023-05-15T00:29:57.913Z,13.44
2023-05-15T00:32:25.821Z,13.53
2023-05-15T00:34:53.681Z,13.73
2023-05-15T00:37:21.457Z,13.68
2023-05-15T00:39:49.340Z,13.77
2023-05-15T00:42:18.156Z,14.04
2023-05-15T00:44:46.447Z,14.26
2023-05-15T00:47:16.406Z,14.02
2023-05-15T00:49:43.561Z,13.87
2023-05-15T00:52:12.258Z,13.77
2023-05-15T00:54:39.204Z,13.68
2023-05-15T00:57:09.494Z,13.86
2023-05-15T00:59:39.095Z,14.10
2023-05-15T01:02:06.130Z,14.08
2023-05-15T01:04:32.996Z,14.20
2023-05-15T01:07:01.081Z,14.26
2023-05-15T01:09:31.674Z,14.45
2023-05-15T01:12:02.534Z,14.54
2023-05-15T01:14:29.350Z,14.42
2023-05-15T01:16:57.043Z,14.49
2023-05-15T01:19:24.978Z,14.36
2023-05-15T01:22:17.724Z,14.30
2023-05-15T01:25:08.410Z,14.14
2023-05-15T01:27:42.677Z,14.00
2023-05-15T01:30:18.180Z,13.83
2023-05-15T01:32:58.750Z,13.78
2023-05-15T01:36:08.301Z,13.60
2023-05-15T01:38:50.785Z,13.51
2023-05-15T01:41:45.942Z,13.46
2023-05-15T01:44:22.618Z,13.36
2023-05-15T01:46:52.478Z,13.35
2023-05-15T01:49:23.936Z,13.45
2023-05-15T01:51:56.343Z,13.43
2023-05-15T01:54:25.067Z,13.43
2023-05-15T01:56:54.297Z,13.40
2023-05-15T01:59:23.794Z,13.40
2023-05-15T02:01:52.815Z,13.54
2023-05-15T02:04:21.207Z,13.59
2023-05-15T02:06:50.584Z,13.51
2023-05-15T02:09:20.225Z,13.56
2023-05-15T02:11:48.698Z,13.73
2023-05-15T02:14:17.635Z,13.96
2023-05-15T02:16:45.695Z,14.02
2023-05-15T02:19:13.896Z,14.15
2023-05-15T02:21:42.006Z,13.89
2023-05-15T02:24:09.751Z,13.89
2023-05-15T02:26:57.870Z,14.23
2023-05-15T02:29:28.492Z,14.31
2023-05-15T02:32:22.593Z,14.41
2023-05-15T02:34:58.950Z,14.37
2023-05-15T02:37:31.216Z,14.51
2023-05-15T02:40:01.749Z,14.63
2023-05-15T02:42:31.441Z,14.68
2023-05-15T02:44:58.529Z,14.76
2023-05-15T02:47:28.254Z,14.85
2023-05-15T02:49:57.612Z,14.78
2023-05-15T02:52:25.074Z,14.92
2023-05-15T02:54:51.968Z,14.82
2023-05-15T02:57:19.698Z,14.24
2023-05-15T02:59:47.660Z,14.12
2023-05-15T03:02:16.388Z,14.19
2023-05-15T03:04:44.249Z,14.34
2023-05-15T03:07:11.503Z,14.20
2023-05-15T03:09:39.236Z,14.44
2023-05-15T03:12:08.129Z,14.58
2023-05-15T03:14:36.669Z,14.53
2023-05-15T03:17:04.634Z,14.68
2023-05-15T03:19:33.210Z,14.85
2023-05-15T03:22:00.442Z,15.01
2023-05-15T03:24:28.103Z,15.16
2023-05-15T03:26:56.616Z,15.20
2023-05-15T03:29:25.145Z,15.37
2023-05-15T03:31:52.821Z,15.40
2023-05-15T03:34:20.568Z,15.42
2023-05-15T03:36:48.331Z,15.53
2023-05-15T03:39:16.102Z,15.60
2023-05-15T03:41:44.608Z,15.63
2023-05-15T03:44:13.090Z,15.66
2023-05-15T03:46:40.968Z,15.28
2023-05-15T03:49:08.938Z,14.99
2023-05-15T03:51:35.993Z,15.12
2023-05-15T03:54:05.833Z,15.28
2023-05-15T03:56:34.069Z,14.91
2023-05-15T03:59:02.585Z,14.68
2023-05-15T04:01:31.223Z,14.75
2023-05-15T04:03:59.015Z,14.86
2023-05-15T04:06:27.725Z,14.73
2023-05-15T04:08:55.626Z,14.90
2023-05-15T04:11:24.754Z,14.90
2023-05-15T04:13:53.301Z,14.66
2023-05-15T04:16:21.617Z,14.83
2023-05-15T04:18:49.651Z,14.95
2023-05-15T04:21:18.202Z,15.07
2023-05-15T04:23:47.126Z,14.74
2023-05-15T04:26:15.675Z,15.04
2023-05-15T04:28:52.303Z,15.20
2023-05-15T04:31:25.323Z,15.18
2023-05-15T04:33:53.834Z,14.99
2023-05-15T04:36:21.811Z,14.87
2023-05-15T04:38:50.517Z,14.34
2023-05-15T04:41:19.122Z,14.06
2023-05-15T04:43:46.902Z,13.76
2023-05-15T04:46:15.701Z,13.65
2023-05-15T04:48:43.587Z,13.56
2023-05-15T04:51:12.423Z,13.46
2023-05-15T04:53:41.071Z,13.66
2023-05-15T04:56:09.831Z,13.94
2023-05-15T04:58:38.431Z,14.04
2023-05-15T05:01:07.070Z,13.89
2023-05-15T05:03:35.177Z,14.14
2023-05-15T05:06:03.885Z,14.07
2023-05-15T05:08:31.644Z,14.13
2023-05-15T05:11:00.130Z,14.39
2023-05-15T05:13:28.903Z,14.42
2023-05-15T05:15:56.720Z,13.93
2023-05-15T05:18:25.319Z,14.00
2023-05-15T05:21:04.069Z,13.97
2023-05-15T05:23:32.983Z,14.06
2023-05-15T05:26:02.249Z,14.22
2023-05-15T05:28:32.176Z,14.17
2023-05-15T05:31:02.825Z,14.43
2023-05-15T05:33:31.345Z,14.49
2023-05-15T05:35:59.974Z,14.63
2023-05-15T05:38:28.474Z,14.41
2023-05-15T05:40:56.231Z,14.23
2023-05-15T05:43:23.162Z,14.12
2023-05-15T05:45:50.945Z,14.25
2023-05-15T05:48:18.238Z,14.34
2023-05-15T05:50:45.951Z,14.39
2023-05-15T05:53:13.710Z,14.41
2023-05-15T05:55:43.615Z,14.48
2023-05-15T05:58:24.138Z,14.45
2023-05-15T06:00:53.552Z,14.37
2023-05-15T06:03:21.596Z,14.47
2023-05-15T06:05:51.090Z,14.74
2023-05-15T06:08:18.132Z,14.95
2023-05-15T06:10:45.878Z,14.91
2023-05-15T06:13:15.317Z,15.09
2023-05-15T06:15:45.339Z,14.85
2023-05-15T06:18:12.510Z,15.06
2023-05-15T06:20:39.306Z,15.01
2023-05-15T06:23:06.068Z,14.96
2023-05-15T06:25:32.872Z,14.82
2023-05-15T06:28:00.989Z,14.81
2023-05-15T06:30:27.847Z,14.48
2023-05-15T06:32:54.732Z,14.54
2023-05-15T06:35:24.114Z,14.81
2023-05-15T06:37:54.957Z,14.75
2023-05-15T06:40:22.949Z,14.80
2023-05-15T06:42:49.927Z,14.91
2023-05-15T06:45:16.865Z,14.98
2023-05-15T06:47:44.522Z,14.75
2023-05-15T06:50:12.208Z,15.01
2023-05-15T06:52:38.982Z,14.93
2023-05-15T06:55:06.290Z,15.01
2023-05-15T06:57:34.165Z,15.16
2023-05-15T07:00:01.866Z,15.31
2023-05-15T07:02:28.714Z,15.21
2023-05-15T07:04:56.636Z,15.22
2023-05-15T07:07:23.511Z,15.22
2023-05-15T07:09:50.491Z,14.94
2023-05-15T07:12:17.243Z,14.97
2023-05-15T07:14:44.059Z,15.01
2023-05-15T07:17:12.216Z,14.88
2023-05-15T07:19:39.270Z,14.88
2023-05-15T07:22:06.153Z,14.96
2023-05-15T07:24:32.881Z,15.04
2023-05-15T07:26:59.586Z,15.14
2023-05-15T07:29:26.563Z,15.19
2023-05-15T07:31:53.763Z,15.08
2023-05-15T07:34:20.955Z,15.04
2023-05-15T07:36:47.913Z,14.99
2023-05-15T07:39:19.783Z,14.98
2023-05-15T07:41:47.326Z,15.06
2023-05-15T07:44:16.160Z,15.18
2023-05-15T07:46:45.679Z,14.99
2023-05-15T07:49:12.688Z,15.00
2023-05-15T07:51:40.813Z,14.92
2023-05-15T07:54:07.740Z,15.10
2023-05-15T07:56:34.606Z,15.38
2023-05-15T07:59:01.484Z,15.47
2023-05-15T08:01:31.390Z,15.60
2023-05-15T08:03:59.653Z,15.61
2023-05-15T08:06:26.599Z,15.64
2023-05-15T08:08:53.452Z,15.27
2023-05-15T08:11:20.310Z,15.20
2023-05-15T08:13:47.324Z,15.52
2023-05-15T08:16:14.234Z,15.40
2023-05-15T08:18:44.813Z,15.55
2023-05-15T08:21:11.866Z,15.35
2023-05-15T08:23:38.718Z,15.27
2023-05-15T08:26:05.827Z,15.16
2023-05-15T08:28:33.429Z,15.19
2023-05-15T08:31:00.276Z,15.02
2023-05-15T08:33:27.043Z,14.99
2023-05-15T08:35:53.980Z,15.01
2023-05-15T08:38:20.945Z,15.10
2023-05-15T08:40:51.270Z,15.40
2023-05-15T08:43:18.538Z,15.78
2023-05-15T08:45:45.372Z,16.03
2023-05-15T08:48:16.503Z,16.27
2023-05-15T08:50:44.447Z,16.28
2023-05-15T08:53:13.227Z,16.34
2023-05-15T08:55:41.842Z,16.31
2023-05-15T08:58:09.817Z,16.11
2023-05-15T09:00:37.762Z,15.82
2023-05-15T09:03:15.853Z,16.03
2023-05-15T09:05:44.954Z,16.20
2023-05-15T09:08:16.913Z,15.86
2023-05-15T09:10:44.197Z,15.71
2023-05-15T09:13:14.856Z,15.65
2023-05-15T09:15:42.653Z,15.50
2023-05-15T09:18:10.121Z,15.91
2023-05-15T09:20:38.237Z,16.13
2023-05-15T09:23:21.793Z,16.30
2023-05-15T09:25:53.259Z,16.57
2023-05-15T09:28:30.919Z,16.42
2023-05-15T09:31:05.256Z,16.34
2023-05-15T09:33:35.097Z,16.30
2023-05-15T09:36:03.282Z,16.36
2023-05-15T09:38:33.298Z,16.34
2023-05-15T09:41:05.704Z,16.32
2023-05-15T09:43:37.858Z,16.46
2023-05-15T09:46:06.523Z,16.29
2023-05-15T09:48:34.816Z,16.37
2023-05-15T09:51:02.299Z,16.28
2023-05-15T09:53:29.333Z,16.17
2023-05-15T09:55:56.254Z,16.11
2023-05-15T09:58:23.584Z,16.06
2023-05-15T10:00:51.363Z,15.96
2023-05-15T10:03:20.640Z,15.92
2023-05-15T10:05:47.570Z,16.04
2023-05-15T10:08:16.137Z,16.09
2023-05-15T10:10:43.863Z,16.44
2023-05-15T10:13:12.057Z,16.51
2023-05-15T10:15:39.912Z,16.59
2023-05-15T10:18:07.884Z,16.73
2023-05-15T10:20:36.018Z,16.83
2023-05-15T10:23:06.684Z,16.75
2023-05-15T10:25:41.893Z,16.30
2023-05-15T10:28:10.434Z,16.44
2023-05-15T10:30:38.325Z,16.54
2023-05-15T10:33:06.737Z,16.47
2023-05-15T10:35:34.893Z,16.61
2023-05-15T10:38:06.489Z,16.96
2023-05-15T10:40:36.785Z,17.11
2023-05-15T10:43:05.007Z,17.11
2023-05-15T10:45:33.311Z,17.13
2023-05-15T10:48:02.356Z,17.37
2023-05-15T10:50:30.599Z,17.59
2023-05-15T10:53:00.685Z,17.73
2023-05-15T10:55:27.493Z,17.31
2023-05-15T10:57:55.018Z,17.25
2023-05-15T11:00:27.072Z,17.19
2023-05-15T11:02:59.422Z,17.09
2023-05-15T11:05:27.009Z,17.15
2023-05-15T11:08:15.177Z,17.28
2023-05-15T11:10:42.842Z,17.26
2023-05-15T11:13:12.261Z,16.96
2023-05-15T11:15:47.929Z,16.85
2023-05-15T11:18:15.709Z,17.01
2023-05-15T11:21:03.228Z,17.04
2023-05-15T11:23:39.608Z,17.15
2023-05-15T11:26:08.484Z,17.17
2023-05-15T11:28:43.788Z,17.31
2023-05-15T11:31:12.502Z,17.23
2023-05-15T11:33:40.767Z,17.30
2023-05-15T11:36:08.804Z,17.14
2023-05-15T11:38:39.829Z,17.31
2023-05-15T11:41:20.245Z,17.12
2023-05-15T11:43:48.764Z,17.03
2023-05-15T11:46:17.597Z,16.80
2023-05-15T11:48:49.680Z,16.17
2023-05-15T11:51:24.250Z,16.53
2023-05-15T11:53:53.189Z,16.89
2023-05-15T11:56:23.149Z,17.24
2023-05-15T11:58:57.106Z,17.52
2023-05-15T12:01:24.013Z,17.34
2023-05-15T12:03:54.422Z,17.34
2023-05-15T12:06:23.726Z,17.39
2023-05-15T12:08:53.063Z,17.45
2023-05-15T12:11:25.394Z,17.57
2023-05-15T12:13:54.402Z,17.39
2023-05-15T12:16:26.428Z,17.62
2023-05-15T12:18:57.457Z,17.71
2023-05-15T12:21:27.521Z,17.59
2023-05-15T12:24:07.010Z,17.67
2023-05-15T12:26:36.339Z,18.03
2023-05-15T12:29:05.382Z,18.24
2023-05-15T12:31:35.937Z,18.23
2023-05-15T12:34:03.929Z,18.29
2023-05-15T12:36:31.259Z,18.11
2023-05-15T12:39:07.961Z,17.98
2023-05-15T12:41:38.428Z,18.14
2023-05-15T12:44:06.903Z,18.02
2023-05-15T12:46:33.901Z,18.02
2023-05-15T12:49:01.566Z,18.20
2023-05-15T12:51:30.100Z,18.11
2023-05-15T12:53:59.948Z,18.07
2023-05-15T12:56:30.165Z,18.09
2023-05-15T12:58:57.577Z,18.12
2023-05-15T13:01:24.338Z,18.01
2023-05-15T13:03:51.888Z,17.90
2023-05-15T13:06:18.817Z,17.56
2023-05-15T13:08:46.482Z,16.97
2023-05-15T13:11:14.635Z,16.84
2023-05-15T13:13:48.496Z,17.25
2023-05-15T13:16:21.289Z,17.47
2023-05-15T13:18:48.202Z,17.66
2023-05-15T13:21:15.176Z,17.72
2023-05-15T13:23:41.914Z,17.79
2023-05-15T13:26:10.671Z,17.60
2023-05-15T13:28:38.180Z,17.74
2023-05-15T13:31:08.696Z,17.42
2023-05-15T13:33:36.182Z,17.49
2023-05-15T13:36:03.186Z,17.63
2023-05-15T13:38:29.879Z,17.65
2023-05-15T13:40:57.127Z,17.85
2023-05-15T13:43:25.836Z,18.10
2023-05-15T13:45:53.300Z,18.10
2023-05-15T13:48:20.326Z,18.11
2023-05-15T13:50:47.193Z,18.30
2023-05-15T13:53:17.102Z,18.30
2023-05-15T13:55:45.933Z,18.20
2023-05-15T13:58:13.538Z,18.23
2023-05-15T14:00:42.657Z,17.90
2023-05-15T14:03:11.329Z,17.98
2023-05-15T14:05:40.285Z,17.89
2023-05-15T14:08:07.788Z,18.11
2023-05-15T14:10:36.399Z,18.12
2023-05-15T14:13:03.221Z,18.15
2023-05-15T14:15:33.176Z,18.30
2023-05-15T14:17:59.943Z,18.35
2023-05-15T14:20:27.027Z,18.24
2023-05-15T14:22:53.881Z,17.95
2023-05-15T14:25:20.668Z,17.95
2023-05-15T14:27:47.781Z,17.98
2023-05-15T14:30:14.751Z,17.84
2023-05-15T14:32:41.944Z,17.47
2023-05-15T14:35:08.907Z,17.60
2023-05-15T14:37:37.761Z,17.67
2023-05-15T14:40:05.025Z,17.56
2023-05-15T14:42:33.962Z,17.54
2023-05-15T14:45:01.183Z,17.63
2023-05-15T14:47:28.683Z,17.73
2023-05-15T14:49:56.282Z,17.88
2023-05-15T14:52:24.854Z,18.00
2023-05-15T14:55:07.878Z,17.88
2023-05-15T14:57:36.505Z,18.03
2023-05-15T15:00:08.325Z,17.73
2023-05-15T15:02:38.029Z,17.87
2023-05-15T15:05:08.095Z,17.39
2023-05-15T15:08:05.459Z,17.18
2023-05-15T15:10:34.859Z,17.12
2023-05-15T15:13:03.043Z,17.01
2023-05-15T15:15:32.030Z,17.18
2023-05-15T15:18:00.393Z,17.30
2023-05-15T15:20:28.441Z,17.42
2023-05-15T15:22:56.969Z,17.23
2023-05-15T15:25:23.852Z,17.26
2023-05-15T15:27:50.857Z,17.22
2023-05-15T15:30:17.888Z,17.11
2023-05-15T15:32:46.634Z,17.06
2023-05-15T15:35:13.884Z,17.02
2023-05-15T15:37:40.934Z,17.18
2023-05-15T15:40:08.370Z,17.23
2023-05-15T15:42:35.424Z,17.35
2023-05-15T15:45:02.853Z,17.50
2023-05-15T15:47:32.326Z,17.57
2023-05-15T15:49:59.968Z,17.41
2023-05-15T15:52:28.655Z,17.32
2023-05-15T15:54:55.488Z,17.38
2023-05-15T15:57:22.480Z,17.43
2023-05-15T15:59:50.058Z,17.19
2023-05-15T16:02:17.561Z,16.92
2023-05-15T16:04:46.117Z,16.83
2023-05-15T16:07:12.918Z,16.81
2023-05-15T16:09:39.759Z,16.30
2023-05-15T16:12:06.726Z,15.84
2023-05-15T16:14:33.392Z,16.07
2023-05-15T16:17:02.832Z,16.36
2023-05-15T16:19:30.245Z,16.60
2023-05-15T16:21:57.184Z,16.77
2023-05-15T16:24:24.397Z,16.73
2023-05-15T16:26:54.105Z,16.59
2023-05-15T16:29:20.982Z,16.24
2023-05-15T16:31:48.951Z,16.23
2023-05-15T16:34:17.463Z,16.25
2023-05-15T16:36:44.512Z,16.30
2023-05-15T16:39:12.336Z,16.34
2023-05-15T16:41:40.899Z,16.23
2023-05-15T16:44:11.054Z,16.34
2023-05-15T16:46:41.162Z,16.48
2023-05-15T16:49:10.897Z,16.19
2023-05-15T16:51:37.837Z,16.11
2023-05-15T16:54:04.951Z,16.12
2023-05-15T16:56:31.632Z,15.81
2023-05-15T16:59:00.271Z,15.82
2023-05-15T17:01:28.933Z,15.89
2023-05-15T17:03:57.964Z,16.03
2023-05-15T17:06:24.880Z,16.30
2023-05-15T17:08:51.626Z,16.27
2023-05-15T17:11:18.460Z,16.46
2023-05-15T17:13:45.081Z,16.55
2023-05-15T17:16:12.697Z,16.56
2023-05-15T17:18:40.518Z,16.39
2023-05-15T17:21:09.045Z,16.22
2023-05-15T17:23:37.698Z,15.95
2023-05-15T17:26:06.229Z,16.02
2023-05-15T17:28:33.051Z,16.17
2023-05-15T17:31:00.219Z,16.25
2023-05-15T17:33:27.819Z,16.27
2023-05-15T17:35:56.435Z,16.16
2023-05-15T17:38:24.097Z,16.17
2023-05-15T17:40:50.846Z,16.32
2023-05-15T17:43:19.552Z,16.13
2023-05-15T17:45:48.178Z,16.33
2023-05-15T17:48:14.865Z,16.22
2023-05-15T17:50:42.404Z,16.21
2023-05-15T17:53:12.661Z,16.32
2023-05-15T17:55:39.468Z,16.33
2023-05-15T17:58:06.539Z,16.25
2023-05-15T18:00:34.231Z,16.05
2023-05-15T18:03:06.303Z,15.89
2023-05-15T18:05:33.967Z,15.99
2023-05-15T18:08:03.556Z,15.81
2023-05-15T18:10:33.086Z,15.85
2023-05-15T18:12:59.988Z,16.07
2023-05-15T18:15:32.091Z,15.79
2023-05-15T18:18:02.215Z,15.59
2023-05-15T18:20:30.062Z,15.81
2023-05-15T18:22:56.849Z,15.89
2023-05-15T18:25:27.011Z,15.91
2023-05-15T18:27:53.979Z,15.86
2023-05-15T18:30:24.219Z,15.89
2023-05-15T18:32:51.060Z,16.01
2023-05-15T18:35:19.798Z,15.92
2023-05-15T18:37:46.654Z,15.83
2023-05-15T18:40:13.814Z,15.52
2023-05-15T18:42:41.449Z,15.45
2023-05-15T18:45:10.481Z,15.46
2023-05-15T18:47:38.672Z,15.46
2023-05-15T18:50:06.593Z,15.65
2023-05-15T18:52:33.337Z,15.49
2023-05-15T18:55:02.208Z,15.36
2023-05-15T18:57:29.036Z,15.51
2023-05-15T18:59:55.739Z,15.25
2023-05-15T19:02:24.526Z,15.49
2023-05-15T19:04:52.656Z,15.50
2023-05-15T19:07:19.501Z,15.53
2023-05-15T19:09:46.294Z,15.63
2023-05-15T19:12:12.962Z,15.53
2023-05-15T19:14:40.676Z,15.75
2023-05-15T19:17:07.499Z,15.76
2023-05-15T19:19:34.223Z,15.95
2023-05-15T19:22:01.355Z,15.76
2023-05-15T19:24:28.068Z,15.68
2023-05-15T19:26:55.192Z,15.81
2023-05-15T19:29:22.479Z,15.93
2023-05-15T19:31:49.825Z,16.03
2023-05-15T19:34:16.693Z,15.84
2023-05-15T19:36:43.588Z,15.98
2023-05-15T19:39:10.236Z,16.07
2023-05-15T19:41:37.095Z,16.15
2023-05-15T19:44:08.571Z,16.25
2023-05-15T19:46:35.587Z,15.65
2023-05-15T19:49:02.495Z,15.75
2023-05-15T19:51:29.797Z,15.72
2023-05-15T19:53:56.844Z,15.24
2023-05-15T19:56:24.567Z,15.43
2023-05-15T19:58:51.780Z,15.54
2023-05-15T20:01:18.964Z,15.67
2023-05-15T20:03:45.999Z,15.34
2023-05-15T20:06:13.115Z,15.23
2023-05-15T20:08:40.105Z,15.32
2023-05-15T20:11:06.849Z,15.40
2023-05-15T20:13:34.770Z,15.55
2023-05-15T20:16:03.918Z,15.57
2023-05-15T20:18:34.841Z,15.57
2023-05-15T20:21:01.964Z,15.62
2023-05-15T20:23:28.888Z,15.76
2023-05-15T20:25:55.731Z,15.86
2023-05-15T20:28:25.577Z,15.92
2023-05-15T20:30:52.840Z,15.83
2023-05-15T20:33:19.847Z,15.88
2023-05-15T20:35:47.213Z,15.89
2023-05-15T20:38:18.213Z,15.96
2023-05-15T20:40:45.032Z,16.01
2023-05-15T20:43:13.637Z,16.04
2023-05-15T20:45:41.182Z,16.18
2023-05-15T20:48:10.896Z,16.13
2023-05-15T20:50:38.913Z,15.96
2023-05-15T20:53:05.719Z,16.06
2023-05-15T20:55:32.755Z,16.14
2023-05-15T20:57:59.695Z,16.22
2023-05-15T21:00:26.813Z,16.29
2023-05-15T21:02:54.442Z,16.23
2023-05-15T21:05:23.440Z,16.26
2023-05-15T21:07:50.366Z,16.24
2023-05-15T21:10:17.190Z,16.05
2023-05-15T21:12:44.251Z,15.72
2023-05-15T21:15:12.836Z,15.14
2023-05-15T21:17:40.113Z,14.72
2023-05-15T21:20:10.982Z,14.97
2023-05-15T21:22:38.104Z,14.75
2023-05-15T21:25:06.234Z,14.95
2023-05-15T21:27:33.228Z,15.01
2023-05-15T21:30:02.037Z,14.94
2023-05-15T21:32:29.783Z,14.85
2023-05-15T21:34:57.453Z,14.33
2023-05-15T21:37:25.078Z,14.28
2023-05-15T21:39:51.982Z,14.18
2023-05-15T21:42:19.588Z,14.28
2023-05-15T21:44:46.816Z,14.41
2023-05-15T21:47:14.063Z,14.29
2023-05-15T21:49:42.657Z,14.58
2023-05-15T21:52:09.555Z,14.63
2023-05-15T21:54:37.214Z,14.47
2023-05-15T21:57:05.331Z,14.22
2023-05-15T21:59:32.927Z,14.14
2023-05-15T22:02:00.521Z,13.80
2023-05-15T22:04:28.815Z,13.98
2023-05-15T22:06:55.596Z,14.03
2023-05-15T22:09:22.360Z,14.18
2023-05-15T22:11:51.066Z,14.15
2023-05-15T22:14:17.834Z,14.31
2023-05-15T22:16:44.901Z,14.28
2023-05-15T22:19:28.421Z,14.33
2023-05-15T22:22:02.777Z,14.08
2023-05-15T22:24:29.577Z,14.11
2023-05-15T22:26:58.162Z,13.70
2023-05-15T22:29:26.837Z,13.62
2023-05-15T22:31:53.716Z,13.79
2023-05-15T22:34:21.813Z,13.80
2023-05-15T22:36:48.590Z,13.76
2023-05-15T22:39:17.244Z,13.97
2023-05-15T22:41:44.164Z,14.13
2023-05-15T22:44:11.252Z,14.26
2023-05-15T22:46:41.232Z,14.35
2023-05-15T22:49:10.020Z,14.10
2023-05-15T22:51:37.325Z,14.11
2023-05-15T22:54:04.043Z,14.14
2023-05-15T22:56:30.896Z,14.38
2023-05-15T22:58:57.801Z,14.03
2023-05-15T23:01:24.666Z,14.25
2023-05-15T23:03:51.665Z,14.42
2023-05-15T23:06:19.282Z,14.40
2023-05-15T23:08:47.867Z,14.37
2023-05-15T23:11:16.606Z,14.36
2023-05-15T23:13:44.525Z,14.42
2023-05-15T23:16:11.700Z,14.51
2023-05-15T23:18:42.378Z,14.42
2023-05-15T23:21:09.372Z,14.41
2023-05-15T23:23:36.979Z,14.17
2023-05-15T23:26:05.777Z,14.27
2023-05-15T23:28:32.553Z,14.33
2023-05-15T23:31:01.231Z,14.12
2023-05-15T23:33:28.010Z,14.10
2023-05-15T23:35:54.800Z,14.10
2023-05-15T23:38:23.776Z,14.10
2023-05-15T23:40:50.796Z,14.02
2023-05-15T23:43:18.478Z,14.14
2023-05-15T23:45:47.156Z,14.41
2023-05-15T23:48:14.024Z,14.49
2023-05-15T23:50:41.736Z,14.23
2023-05-15T23:53:11.174Z,14.13
2023-05-15T23:55:37.974Z,14.27
2023-05-15T23:58:04.785Z,14.10
